Tropical Cyclones
[Index]
Main Index Home Page Stock Weather Photos Extreme Storms Discussion Storm News and Storm Chasing Reports Tropical Cyclones / Hurricanes / Typhoons Weather Data and Links Wild Fires / Bushfires Weather Observation Techniques Weather Picture Catalogue Tornado Pictures and Reports Stock Video Footage and DVDs for sale
Season 2001-2002 Tropical Cyclone BESSI Track Map
Season 2001-2002 Summaries: [BoM-AU] [JTWC-AU] [JTWC-SIO] [JTWC-SPAC] [JTWC-SH]
<<- Previous TC | BoM 2001-2002 Season | Next TC ->>

click for intensity scale information  Lat/long Grid: Show Hide

 Date Labels: Show Hide

Bureau of Meteorology Tropical Cyclone Data

Name: BESSI
Number: 852 / 200102_02

25 Nov 2001 06:00 UTC to 01 Dec 2001 12:00 UTC

    date/time    lat    long    hPa   cat  kts
2001-11-25 06    7.0    95.6   1004         20          
2001-11-25 12    7.6    94.9   1004         20          
2001-11-25 18    7.7    94.9   1004         20          
2001-11-26 00    7.8    94.8   1002         25          
2001-11-26 06    7.9    94.8   1000         25          
2001-11-26 12    8.0    94.8    998         30          
2001-11-26 18    8.2    94.4    998         30          
2001-11-27 00    8.3    94.0    995    1    35          
2001-11-27 06    8.3    93.6    994    1    35          
2001-11-27 12    8.6    93.2    992    1    40          
2001-11-27 18    8.9    92.8    990    1    40          
2001-11-28 00    9.5    92.4    985    2    50          
2001-11-28 06    9.7    92.3    980    2    55          
2001-11-28 12   10.4    92.3    984    2    50          
2001-11-28 18   10.9    92.0    988    1    45          
2001-11-29 00   11.2    91.8    990    1    40          
2001-11-29 06   12.2    91.5    992    1    40          
2001-11-29 12   13.4    91.2    994    1    35          
2001-11-29 18   13.9    90.2    994    1    35          
2001-11-30 00   14.2    89.3    992    1    40          
2001-11-30 06   14.5    88.9    990    1    40          
2001-11-30 12   14.7    88.0    988    1    45          
2001-11-30 18   14.9    87.0    985    2    50          
2001-12-01 00   15.0    86.2    982    2    50          
2001-12-01 06   15.1    85.6    978    2    55          
2001-12-01 12   15.3    85.5    972    2    60          
Winds are 10-min average.

Tropical cyclone tracks developed by Michael Bath using data from the Bureau of Meteorology and Google Maps.


[Australian Severe Weather index] [Copyright Notice] [Email Contacts] [Search This Site] [Privacy Policy]
Document: tropical_cyclone_bessi.htm Updated: 29 June 2017